sensor_id;sensor_type;location;lat;lon;timestamp;temperature;humidity
27741;DHT22;15134;48.768;9.184;2023-11-21T00:00:31;9.60;99.90
27741;DHT22;15134;48.768;9.184;2023-11-21T00:02:57;9.60;99.90
27741;DHT22;15134;48.768;9.184;2023-11-21T00:05:23;9.60;99.90
27741;DHT22;15134;48.768;9.184;2023-11-21T00:07:49;9.60;99.90
27741;DHT22;15134;48.768;9.184;2023-11-21T00:10:14;9.60;99.90
27741;DHT22;15134;48.768;9.184;2023-11-21T00:12:41;9.60;99.90
27741;DHT22;15134;48.768;9.184;2023-11-21T00:15:08;9.60;99.90
27741;DHT22;15134;48.768;9.184;2023-11-21T00:17:39;9.60;99.90
27741;DHT22;15134;48.768;9.184;2023-11-21T00:20:06;9.60;99.90
27741;DHT22;15134;48.768;9.184;2023-11-21T00:22:36;9.70;99.90
27741;DHT22;15134;48.768;9.184;2023-11-21T00:25:02;9.60;99.90
27741;DHT22;15134;48.768;9.184;2023-11-21T00:27:29;9.60;99.90
27741;DHT22;15134;48.768;9.184;2023-11-21T00:29:55;9.60;99.90
27741;DHT22;15134;48.768;9.184;2023-11-21T00:32:21;9.60;99.90
27741;DHT22;15134;48.768;9.184;2023-11-21T00:34:47;9.60;99.90
27741;DHT22;15134;48.768;9.184;2023-11-21T00:37:12;9.60;99.90
27741;DHT22;15134;48.768;9.184;2023-11-21T00:39:38;9.60;99.90
27741;DHT22;15134;48.768;9.184;2023-11-21T00:42:06;9.60;99.90
27741;DHT22;15134;48.768;9.184;2023-11-21T00:44:31;9.60;99.90
27741;DHT22;15134;48.768;9.184;2023-11-21T00:46:57;9.50;99.90
27741;DHT22;15134;48.768;9.184;2023-11-21T00:49:23;9.60;99.90
27741;DHT22;15134;48.768;9.184;2023-11-21T00:51:49;9.50;99.90
27741;DHT22;15134;48.768;9.184;2023-11-21T00:54:14;9.50;99.90
27741;DHT22;15134;48.768;9.184;2023-11-21T00:56:43;9.60;99.90
27741;DHT22;15134;48.768;9.184;2023-11-21T00:59:08;9.60;99.90
27741;DHT22;15134;48.768;9.184;2023-11-21T01:01:34;9.50;99.90
27741;DHT22;15134;48.768;9.184;2023-11-21T01:04:00;9.60;99.90
27741;DHT22;15134;48.768;9.184;2023-11-21T01:06:26;9.60;99.90
27741;DHT22;15134;48.768;9.184;2023-11-21T01:08:52;9.60;99.90
27741;DHT22;15134;48.768;9.184;2023-11-21T01:11:17;9.50;99.90
27741;DHT22;15134;48.768;9.184;2023-11-21T01:13:43;9.50;99.90
27741;DHT22;15134;48.768;9.184;2023-11-21T01:16:10;9.50;99.90
27741;DHT22;15134;48.768;9.184;2023-11-21T01:18:36;9.50;99.90
27741;DHT22;15134;48.768;9.184;2023-11-21T01:21:03;9.60;99.90
27741;DHT22;15134;48.768;9.184;2023-11-21T01:23:29;9.60;99.90
27741;DHT22;15134;48.768;9.184;2023-11-21T01:25:56;9.60;99.90
27741;DHT22;15134;48.768;9.184;2023-11-21T01:28:22;9.70;99.90
27741;DHT22;15134;48.768;9.184;2023-11-21T01:30:48;9.60;99.90
27741;DHT22;15134;48.768;9.184;2023-11-21T01:33:14;9.60;99.90
27741;DHT22;15134;48.768;9.184;2023-11-21T01:35:41;9.60;99.90
27741;DHT22;15134;48.768;9.184;2023-11-21T01:38:07;9.60;99.90
27741;DHT22;15134;48.768;9.184;2023-11-21T01:40:34;9.60;99.90
27741;DHT22;15134;48.768;9.184;2023-11-21T01:43:00;9.60;99.90
27741;DHT22;15134;48.768;9.184;2023-11-21T01:45:28;9.60;99.90
27741;DHT22;15134;48.768;9.184;2023-11-21T01:47:56;9.70;99.90
27741;DHT22;15134;48.768;9.184;2023-11-21T01:50:24;9.70;99.90
27741;DHT22;15134;48.768;9.184;2023-11-21T01:52:50;9.70;99.90
27741;DHT22;15134;48.768;9.184;2023-11-21T01:55:17;9.70;99.90
27741;DHT22;15134;48.768;9.184;2023-11-21T01:57:46;9.70;99.90
27741;DHT22;15134;48.768;9.184;2023-11-21T02:00:13;9.70;99.90
27741;DHT22;15134;48.768;9.184;2023-11-21T02:02:48;9.80;99.90
27741;DHT22;15134;48.768;9.184;2023-11-21T02:05:15;9.80;99.90
27741;DHT22;15134;48.768;9.184;2023-11-21T02:07:44;9.80;99.90
27741;DHT22;15134;48.768;9.184;2023-11-21T02:10:11;9.80;99.90
27741;DHT22;15134;48.768;9.184;2023-11-21T02:12:45;9.70;99.90
27741;DHT22;15134;48.768;9.184;2023-11-21T02:15:15;9.70;99.90
27741;DHT22;15134;48.768;9.184;2023-11-21T02:17:49;9.70;99.90
27741;DHT22;15134;48.768;9.184;2023-11-21T02:20:21;9.70;99.90
27741;DHT22;15134;48.768;9.184;2023-11-21T02:22:54;9.60;99.90
27741;DHT22;15134;48.768;9.184;2023-11-21T02:25:33;9.60;99.90
27741;DHT22;15134;48.768;9.184;2023-11-21T02:28:02;9.50;99.90
27741;DHT22;15134;48.768;9.184;2023-11-21T02:30:30;9.50;99.90
27741;DHT22;15134;48.768;9.184;2023-11-21T02:32:57;9.50;99.90
27741;DHT22;15134;48.768;9.184;2023-11-21T02:35:25;9.50;99.90
27741;DHT22;15134;48.768;9.184;2023-11-21T02:37:54;9.50;99.90
27741;DHT22;15134;48.768;9.184;2023-11-21T02:40:20;9.50;99.90
27741;DHT22;15134;48.768;9.184;2023-11-21T02:42:49;9.50;99.90
27741;DHT22;15134;48.768;9.184;2023-11-21T02:45:20;9.40;99.90
27741;DHT22;15134;48.768;9.184;2023-11-21T02:47:50;9.50;99.90
27741;DHT22;15134;48.768;9.184;2023-11-21T02:50:16;9.40;99.90
27741;DHT22;15134;48.768;9.184;2023-11-21T02:52:45;9.40;99.90
27741;DHT22;15134;48.768;9.184;2023-11-21T02:55:11;9.50;99.90
27741;DHT22;15134;48.768;9.184;2023-11-21T02:57:37;9.40;99.90
27741;DHT22;15134;48.768;9.184;2023-11-21T03:00:03;9.40;99.90
27741;DHT22;15134;48.768;9.184;2023-11-21T03:02:28;9.40;99.90
27741;DHT22;15134;48.768;9.184;2023-11-21T03:04:54;9.30;99.90
27741;DHT22;15134;48.768;9.184;2023-11-21T03:07:20;9.40;99.90
27741;DHT22;15134;48.768;9.184;2023-11-21T03:09:47;9.40;99.90
27741;DHT22;15134;48.768;9.184;2023-11-21T03:12:13;9.40;99.90
27741;DHT22;15134;48.768;9.184;2023-11-21T03:14:41;9.40;99.90
27741;DHT22;15134;48.768;9.184;2023-11-21T03:17:07;9.40;99.90
27741;DHT22;15134;48.768;9.184;2023-11-21T03:19:33;9.50;99.90
27741;DHT22;15134;48.768;9.184;2023-11-21T03:21:59;9.50;99.90
27741;DHT22;15134;48.768;9.184;2023-11-21T03:24:25;9.50;99.90
27741;DHT22;15134;48.768;9.184;2023-11-21T03:26:52;9.50;99.90
27741;DHT22;15134;48.768;9.184;2023-11-21T03:29:18;9.50;99.90
27741;DHT22;15134;48.768;9.184;2023-11-21T03:31:44;9.50;99.90
27741;DHT22;15134;48.768;9.184;2023-11-21T03:34:15;9.50;99.90
27741;DHT22;15134;48.768;9.184;2023-11-21T03:36:41;9.50;99.90
27741;DHT22;15134;48.768;9.184;2023-11-21T03:39:07;9.50;99.90
27741;DHT22;15134;48.768;9.184;2023-11-21T03:41:33;9.60;99.90
27741;DHT22;15134;48.768;9.184;2023-11-21T03:43:59;9.50;99.90
27741;DHT22;15134;48.768;9.184;2023-11-21T03:46:25;9.50;99.90
27741;DHT22;15134;48.768;9.184;2023-11-21T03:48:51;9.50;99.90
27741;DHT22;15134;48.768;9.184;2023-11-21T03:51:17;9.50;99.90
27741;DHT22;15134;48.768;9.184;2023-11-21T03:53:42;9.50;99.90
27741;DHT22;15134;48.768;9.184;2023-11-21T03:56:09;9.50;99.90
27741;DHT22;15134;48.768;9.184;2023-11-21T03:58:35;9.50;99.90
27741;DHT22;15134;48.768;9.184;2023-11-21T04:01:01;9.50;99.90
27741;DHT22;15134;48.768;9.184;2023-11-21T04:03:27;9.50;99.90
27741;DHT22;15134;48.768;9.184;2023-11-21T04:05:52;9.50;99.90
27741;DHT22;15134;48.768;9.184;2023-11-21T04:08:18;9.60;99.90
27741;DHT22;15134;48.768;9.184;2023-11-21T04:10:44;9.60;99.90
27741;DHT22;15134;48.768;9.184;2023-11-21T04:13:10;9.60;99.90
27741;DHT22;15134;48.768;9.184;2023-11-21T04:15:36;9.60;99.90
27741;DHT22;15134;48.768;9.184;2023-11-21T04:18:01;9.60;99.90
27741;DHT22;15134;48.768;9.184;2023-11-21T04:20:27;9.60;99.90
27741;DHT22;15134;48.768;9.184;2023-11-21T04:22:53;9.50;99.90
27741;DHT22;15134;48.768;9.184;2023-11-21T04:25:19;9.50;99.90
27741;DHT22;15134;48.768;9.184;2023-11-21T04:27:45;9.50;99.90
27741;DHT22;15134;48.768;9.184;2023-11-21T04:30:12;9.50;99.90
27741;DHT22;15134;48.768;9.184;2023-11-21T04:32:38;9.50;99.90
27741;DHT22;15134;48.768;9.184;2023-11-21T04:35:05;9.50;99.90
27741;DHT22;15134;48.768;9.184;2023-11-21T04:37:31;9.50;99.90
27741;DHT22;15134;48.768;9.184;2023-11-21T04:39:56;9.40;99.90
27741;DHT22;15134;48.768;9.184;2023-11-21T04:42:22;9.40;99.90
27741;DHT22;15134;48.768;9.184;2023-11-21T04:44:49;9.40;99.90
27741;DHT22;15134;48.768;9.184;2023-11-21T04:47:14;9.40;99.90
27741;DHT22;15134;48.768;9.184;2023-11-21T04:49:43;9.40;99.90
27741;DHT22;15134;48.768;9.184;2023-11-21T04:52:12;9.40;99.90
27741;DHT22;15134;48.768;9.184;2023-11-21T04:54:38;9.40;99.90
27741;DHT22;15134;48.768;9.184;2023-11-21T04:57:05;9.30;99.90
27741;DHT22;15134;48.768;9.184;2023-11-21T04:59:33;9.30;99.90
27741;DHT22;15134;48.768;9.184;2023-11-21T05:01:59;9.30;99.90
27741;DHT22;15134;48.768;9.184;2023-11-21T05:04:26;9.30;99.90
27741;DHT22;15134;48.768;9.184;2023-11-21T05:06:52;9.30;99.90
27741;DHT22;15134;48.768;9.184;2023-11-21T05:09:18;9.30;99.90
27741;DHT22;15134;48.768;9.184;2023-11-21T05:11:43;9.30;99.90
27741;DHT22;15134;48.768;9.184;2023-11-21T05:14:09;9.30;99.90
27741;DHT22;15134;48.768;9.184;2023-11-21T05:16:35;9.30;99.90
27741;DHT22;15134;48.768;9.184;2023-11-21T05:19:02;9.20;99.90
27741;DHT22;15134;48.768;9.184;2023-11-21T05:21:28;9.20;99.90
27741;DHT22;15134;48.768;9.184;2023-11-21T05:23:55;9.20;99.90
27741;DHT22;15134;48.768;9.184;2023-11-21T05:26:20;9.20;99.90
27741;DHT22;15134;48.768;9.184;2023-11-21T05:28:47;9.30;99.90
27741;DHT22;15134;48.768;9.184;2023-11-21T05:31:13;9.30;99.90
27741;DHT22;15134;48.768;9.184;2023-11-21T05:33:39;9.30;99.90
27741;DHT22;15134;48.768;9.184;2023-11-21T05:36:05;9.30;99.90
27741;DHT22;15134;48.768;9.184;2023-11-21T05:38:33;9.30;99.90
27741;DHT22;15134;48.768;9.184;2023-11-21T05:40:59;9.30;99.90
27741;DHT22;15134;48.768;9.184;2023-11-21T05:43:25;9.30;99.90
27741;DHT22;15134;48.768;9.184;2023-11-21T05:45:50;9.40;99.90
27741;DHT22;15134;48.768;9.184;2023-11-21T05:48:17;9.40;99.90
27741;DHT22;15134;48.768;9.184;2023-11-21T05:50:43;9.30;99.90
27741;DHT22;15134;48.768;9.184;2023-11-21T05:53:08;9.20;99.90
27741;DHT22;15134;48.768;9.184;2023-11-21T05:55:37;9.30;99.90
27741;DHT22;15134;48.768;9.184;2023-11-21T05:58:02;9.20;99.90
27741;DHT22;15134;48.768;9.184;2023-11-21T06:00:28;9.30;99.90
27741;DHT22;15134;48.768;9.184;2023-11-21T06:02:54;9.30;99.90
27741;DHT22;15134;48.768;9.184;2023-11-21T06:05:21;9.30;99.90
27741;DHT22;15134;48.768;9.184;2023-11-21T06:07:49;9.30;99.90
27741;DHT22;15134;48.768;9.184;2023-11-21T06:10:15;9.30;99.90
27741;DHT22;15134;48.768;9.184;2023-11-21T06:12:43;9.30;99.90
27741;DHT22;15134;48.768;9.184;2023-11-21T06:15:10;9.20;99.90
27741;DHT22;15134;48.768;9.184;2023-11-21T06:17:39;9.30;99.90
27741;DHT22;15134;48.768;9.184;2023-11-21T06:20:09;9.20;99.90
27741;DHT22;15134;48.768;9.184;2023-11-21T06:22:42;9.20;99.90
27741;DHT22;15134;48.768;9.184;2023-11-21T06:25:09;9.30;99.90
27741;DHT22;15134;48.768;9.184;2023-11-21T06:27:38;9.30;99.90
27741;DHT22;15134;48.768;9.184;2023-11-21T06:30:05;9.30;99.90
27741;DHT22;15134;48.768;9.184;2023-11-21T06:32:32;9.30;99.90
27741;DHT22;15134;48.768;9.184;2023-11-21T06:34:58;9.30;99.90
27741;DHT22;15134;48.768;9.184;2023-11-21T06:37:28;9.30;99.90
27741;DHT22;15134;48.768;9.184;2023-11-21T06:39:54;9.30;99.90
27741;DHT22;15134;48.768;9.184;2023-11-21T06:42:20;9.40;99.90
27741;DHT22;15134;48.768;9.184;2023-11-21T06:44:46;9.40;99.90
27741;DHT22;15134;48.768;9.184;2023-11-21T06:47:13;9.40;99.90
27741;DHT22;15134;48.768;9.184;2023-11-21T06:49:39;9.30;99.90
27741;DHT22;15134;48.768;9.184;2023-11-21T06:52:05;9.40;99.90
27741;DHT22;15134;48.768;9.184;2023-11-21T06:54:31;9.40;99.90
27741;DHT22;15134;48.768;9.184;2023-11-21T06:56:58;9.40;99.90
27741;DHT22;15134;48.768;9.184;2023-11-21T06:59:24;9.40;99.90
27741;DHT22;15134;48.768;9.184;2023-11-21T07:01:50;9.40;99.90
27741;DHT22;15134;48.768;9.184;2023-11-21T07:04:16;9.40;99.90
27741;DHT22;15134;48.768;9.184;2023-11-21T07:06:42;9.40;99.90
27741;DHT22;15134;48.768;9.184;2023-11-21T07:09:09;9.40;99.90
27741;DHT22;15134;48.768;9.184;2023-11-21T07:11:37;9.40;99.90
27741;DHT22;15134;48.768;9.184;2023-11-21T07:14:04;9.40;99.90
27741;DHT22;15134;48.768;9.184;2023-11-21T07:16:37;9.40;99.90
27741;DHT22;15134;48.768;9.184;2023-11-21T07:19:07;9.40;99.90
27741;DHT22;15134;48.768;9.184;2023-11-21T07:21:36;9.50;99.90
27741;DHT22;15134;48.768;9.184;2023-11-21T07:24:05;9.50;99.90
27741;DHT22;15134;48.768;9.184;2023-11-21T07:26:32;9.50;99.90
27741;DHT22;15134;48.768;9.184;2023-11-21T07:28:59;9.50;99.90
27741;DHT22;15134;48.768;9.184;2023-11-21T07:31:25;9.60;99.90
27741;DHT22;15134;48.768;9.184;2023-11-21T07:33:51;9.60;99.90
27741;DHT22;15134;48.768;9.184;2023-11-21T07:36:17;9.50;99.90
27741;DHT22;15134;48.768;9.184;2023-11-21T07:38:46;9.50;99.90
27741;DHT22;15134;48.768;9.184;2023-11-21T07:41:13;9.60;99.90
27741;DHT22;15134;48.768;9.184;2023-11-21T07:43:41;9.60;99.90
27741;DHT22;15134;48.768;9.184;2023-11-21T07:46:07;9.60;99.90
27741;DHT22;15134;48.768;9.184;2023-11-21T07:48:34;9.60;99.90
27741;DHT22;15134;48.768;9.184;2023-11-21T07:51:01;9.50;99.90
27741;DHT22;15134;48.768;9.184;2023-11-21T07:53:29;9.60;99.90
27741;DHT22;15134;48.768;9.184;2023-11-21T07:56:00;9.60;99.90
27741;DHT22;15134;48.768;9.184;2023-11-21T07:58:28;9.70;99.90
27741;DHT22;15134;48.768;9.184;2023-11-21T08:00:54;9.70;99.90
27741;DHT22;15134;48.768;9.184;2023-11-21T08:03:19;9.70;99.90
27741;DHT22;15134;48.768;9.184;2023-11-21T08:05:46;9.70;99.90
27741;DHT22;15134;48.768;9.184;2023-11-21T08:08:12;9.70;99.90
27741;DHT22;15134;48.768;9.184;2023-11-21T08:10:38;9.70;99.90
27741;DHT22;15134;48.768;9.184;2023-11-21T08:13:07;9.70;99.90
27741;DHT22;15134;48.768;9.184;2023-11-21T08:15:34;9.70;99.90
27741;DHT22;15134;48.768;9.184;2023-11-21T08:18:02;9.70;99.90
27741;DHT22;15134;48.768;9.184;2023-11-21T08:20:28;9.70;99.90
27741;DHT22;15134;48.768;9.184;2023-11-21T08:22:54;9.80;99.90
27741;DHT22;15134;48.768;9.184;2023-11-21T08:25:22;9.80;99.90
27741;DHT22;15134;48.768;9.184;2023-11-21T08:27:48;9.90;99.90
27741;DHT22;15134;48.768;9.184;2023-11-21T08:30:14;9.90;99.90
27741;DHT22;15134;48.768;9.184;2023-11-21T08:32:42;9.90;99.90
27741;DHT22;15134;48.768;9.184;2023-11-21T08:35:08;9.90;99.90
27741;DHT22;15134;48.768;9.184;2023-11-21T08:37:34;9.90;99.90
27741;DHT22;15134;48.768;9.184;2023-11-21T08:40:04;9.90;99.90
27741;DHT22;15134;48.768;9.184;2023-11-21T08:42:33;9.90;99.90
27741;DHT22;15134;48.768;9.184;2023-11-21T08:44:58;9.90;99.90
27741;DHT22;15134;48.768;9.184;2023-11-21T08:47:24;9.90;99.90
27741;DHT22;15134;48.768;9.184;2023-11-21T08:49:52;9.90;99.90
27741;DHT22;15134;48.768;9.184;2023-11-21T08:52:20;10.00;99.90
27741;DHT22;15134;48.768;9.184;2023-11-21T08:54:51;10.00;99.90
27741;DHT22;15134;48.768;9.184;2023-11-21T08:57:25;10.10;99.90
27741;DHT22;15134;48.768;9.184;2023-11-21T08:59:51;10.10;99.90
27741;DHT22;15134;48.768;9.184;2023-11-21T09:02:21;10.10;99.90
27741;DHT22;15134;48.768;9.184;2023-11-21T09:04:49;10.20;99.90
27741;DHT22;15134;48.768;9.184;2023-11-21T09:07:16;10.30;99.90
27741;DHT22;15134;48.768;9.184;2023-11-21T09:09:42;10.40;99.90
27741;DHT22;15134;48.768;9.184;2023-11-21T09:12:07;10.50;99.90
27741;DHT22;15134;48.768;9.184;2023-11-21T09:14:38;10.60;99.90
27741;DHT22;15134;48.768;9.184;2023-11-21T09:17:05;10.70;99.90
27741;DHT22;15134;48.768;9.184;2023-11-21T09:19:42;10.80;99.90
27741;DHT22;15134;48.768;9.184;2023-11-21T09:22:16;10.90;99.90
27741;DHT22;15134;48.768;9.184;2023-11-21T09:24:42;11.00;99.90
27741;DHT22;15134;48.768;9.184;2023-11-21T09:27:08;11.00;99.90
27741;DHT22;15134;48.768;9.184;2023-11-21T09:29:35;11.10;99.90
27741;DHT22;15134;48.768;9.184;2023-11-21T09:32:02;11.10;99.90
27741;DHT22;15134;48.768;9.184;2023-11-21T09:34:28;11.10;99.90
27741;DHT22;15134;48.768;9.184;2023-11-21T09:36:54;11.10;99.90
27741;DHT22;15134;48.768;9.184;2023-11-21T09:39:20;11.10;99.90
27741;DHT22;15134;48.768;9.184;2023-11-21T09:41:50;11.10;99.90
27741;DHT22;15134;48.768;9.184;2023-11-21T09:44:31;11.00;99.90
27741;DHT22;15134;48.768;9.184;2023-11-21T09:46:59;11.00;99.90
27741;DHT22;15134;48.768;9.184;2023-11-21T09:49:26;11.00;99.90
27741;DHT22;15134;48.768;9.184;2023-11-21T09:51:55;11.00;99.90
27741;DHT22;15134;48.768;9.184;2023-11-21T09:54:22;10.80;99.90
27741;DHT22;15134;48.768;9.184;2023-11-21T09:56:48;10.70;99.90
27741;DHT22;15134;48.768;9.184;2023-11-21T09:59:16;10.70;99.90
27741;DHT22;15134;48.768;9.184;2023-11-21T10:01:42;10.70;99.90
27741;DHT22;15134;48.768;9.184;2023-11-21T10:04:09;10.70;99.90
27741;DHT22;15134;48.768;9.184;2023-11-21T10:06:40;10.70;99.90
27741;DHT22;15134;48.768;9.184;2023-11-21T10:09:10;10.70;99.90
27741;DHT22;15134;48.768;9.184;2023-11-21T10:11:40;10.70;99.90
27741;DHT22;15134;48.768;9.184;2023-11-21T10:14:08;10.70;99.90
27741;DHT22;15134;48.768;9.184;2023-11-21T10:16:36;10.70;99.90
27741;DHT22;15134;48.768;9.184;2023-11-21T10:19:04;10.70;99.90
27741;DHT22;15134;48.768;9.184;2023-11-21T10:21:35;10.80;99.90
27741;DHT22;15134;48.768;9.184;2023-11-21T10:24:01;10.70;99.90
27741;DHT22;15134;48.768;9.184;2023-11-21T10:26:30;10.80;99.90
27741;DHT22;15134;48.768;9.184;2023-11-21T10:28:58;10.70;99.90
27741;DHT22;15134;48.768;9.184;2023-11-21T10:31:30;10.60;99.90
27741;DHT22;15134;48.768;9.184;2023-11-21T10:34:15;10.50;99.90
27741;DHT22;15134;48.768;9.184;2023-11-21T10:36:41;10.50;99.90
27741;DHT22;15134;48.768;9.184;2023-11-21T10:39:07;10.50;99.90
27741;DHT22;15134;48.768;9.184;2023-11-21T10:41:33;10.60;99.90
27741;DHT22;15134;48.768;9.184;2023-11-21T10:44:01;10.50;99.90
27741;DHT22;15134;48.768;9.184;2023-11-21T10:46:29;10.50;99.90
27741;DHT22;15134;48.768;9.184;2023-11-21T10:48:56;10.60;99.90
27741;DHT22;15134;48.768;9.184;2023-11-21T10:51:22;10.60;99.90
27741;DHT22;15134;48.768;9.184;2023-11-21T10:53:53;10.50;99.90
27741;DHT22;15134;48.768;9.184;2023-11-21T10:56:19;10.50;99.90
27741;DHT22;15134;48.768;9.184;2023-11-21T10:58:48;10.50;99.90
27741;DHT22;15134;48.768;9.184;2023-11-21T11:01:17;10.60;99.90
27741;DHT22;15134;48.768;9.184;2023-11-21T11:03:44;10.60;99.90
27741;DHT22;15134;48.768;9.184;2023-11-21T11:06:10;10.60;99.90
27741;DHT22;15134;48.768;9.184;2023-11-21T11:08:37;10.50;99.90
27741;DHT22;15134;48.768;9.184;2023-11-21T11:11:07;10.60;99.90
27741;DHT22;15134;48.768;9.184;2023-11-21T11:13:33;10.60;99.90
27741;DHT22;15134;48.768;9.184;2023-11-21T11:16:00;10.70;99.90
27741;DHT22;15134;48.768;9.184;2023-11-21T11:18:30;10.90;99.90
27741;DHT22;15134;48.768;9.184;2023-11-21T11:21:29;11.00;99.90
27741;DHT22;15134;48.768;9.184;2023-11-21T11:24:15;11.20;99.90
27741;DHT22;15134;48.768;9.184;2023-11-21T11:26:56;11.30;99.90
27741;DHT22;15134;48.768;9.184;2023-11-21T11:32:16;11.30;99.90
27741;DHT22;15134;48.768;9.184;2023-11-21T11:34:57;11.30;99.90
27741;DHT22;15134;48.768;9.184;2023-11-21T11:37:26;11.20;99.90
27741;DHT22;15134;48.768;9.184;2023-11-21T11:39:52;11.20;99.90
27741;DHT22;15134;48.768;9.184;2023-11-21T11:42:21;11.20;99.90
27741;DHT22;15134;48.768;9.184;2023-11-21T11:44:49;11.10;99.90
27741;DHT22;15134;48.768;9.184;2023-11-21T11:47:27;11.10;99.90
27741;DHT22;15134;48.768;9.184;2023-11-21T11:50:09;11.10;99.90
27741;DHT22;15134;48.768;9.184;2023-11-21T11:52:47;11.10;99.90
27741;DHT22;15134;48.768;9.184;2023-11-21T11:55:15;11.20;99.90
27741;DHT22;15134;48.768;9.184;2023-11-21T11:57:54;11.20;99.90
27741;DHT22;15134;48.768;9.184;2023-11-21T12:02:57;11.20;99.90
27741;DHT22;15134;48.768;9.184;2023-11-21T12:05:25;11.30;99.90
27741;DHT22;15134;48.768;9.184;2023-11-21T12:07:54;11.30;99.90
27741;DHT22;15134;48.768;9.184;2023-11-21T12:10:25;11.30;99.90
27741;DHT22;15134;48.768;9.184;2023-11-21T12:12:52;11.30;99.90
27741;DHT22;15134;48.768;9.184;2023-11-21T12:15:19;11.30;99.90
27741;DHT22;15134;48.768;9.184;2023-11-21T12:17:46;11.30;99.90
27741;DHT22;15134;48.768;9.184;2023-11-21T12:20:18;11.30;99.90
27741;DHT22;15134;48.768;9.184;2023-11-21T12:22:45;11.30;99.90
27741;DHT22;15134;48.768;9.184;2023-11-21T12:25:19;11.20;99.90
27741;DHT22;15134;48.768;9.184;2023-11-21T12:27:52;11.10;99.90
27741;DHT22;15134;48.768;9.184;2023-11-21T12:30:19;11.00;99.90
27741;DHT22;15134;48.768;9.184;2023-11-21T12:32:48;10.70;99.90
27741;DHT22;15134;48.768;9.184;2023-11-21T12:35:15;10.50;99.90
27741;DHT22;15134;48.768;9.184;2023-11-21T12:37:42;10.40;99.90
27741;DHT22;15134;48.768;9.184;2023-11-21T12:40:10;10.20;99.90
27741;DHT22;15134;48.768;9.184;2023-11-21T12:42:45;10.20;99.90
27741;DHT22;15134;48.768;9.184;2023-11-21T12:47:44;10.20;99.90
27741;DHT22;15134;48.768;9.184;2023-11-21T12:50:13;10.10;99.90
27741;DHT22;15134;48.768;9.184;2023-11-21T12:52:45;10.20;99.90
27741;DHT22;15134;48.768;9.184;2023-11-21T12:55:18;10.10;99.90
27741;DHT22;15134;48.768;9.184;2023-11-21T12:57:54;10.10;99.90
27741;DHT22;15134;48.768;9.184;2023-11-21T13:00:27;10.10;99.90
27741;DHT22;15134;48.768;9.184;2023-11-21T13:02:55;10.30;99.90
27741;DHT22;15134;48.768;9.184;2023-11-21T13:05:43;10.30;99.90
27741;DHT22;15134;48.768;9.184;2023-11-21T13:08:11;10.30;99.90
27741;DHT22;15134;48.768;9.184;2023-11-21T13:10:45;10.30;99.90
27741;DHT22;15134;48.768;9.184;2023-11-21T13:13:13;10.40;99.90
27741;DHT22;15134;48.768;9.184;2023-11-21T13:15:50;10.50;99.90
27741;DHT22;15134;48.768;9.184;2023-11-21T13:18:16;10.60;99.90
27741;DHT22;15134;48.768;9.184;2023-11-21T13:20:43;10.60;99.90
27741;DHT22;15134;48.768;9.184;2023-11-21T13:23:10;10.60;99.90
27741;DHT22;15134;48.768;9.184;2023-11-21T13:25:39;10.60;99.90
27741;DHT22;15134;48.768;9.184;2023-11-21T13:28:08;10.50;99.90
27741;DHT22;15134;48.768;9.184;2023-11-21T13:30:37;10.40;99.90
27741;DHT22;15134;48.768;9.184;2023-11-21T13:33:06;10.30;99.90
27741;DHT22;15134;48.768;9.184;2023-11-21T13:35:39;10.10;99.90
27741;DHT22;15134;48.768;9.184;2023-11-21T13:38:13;10.00;99.90
27741;DHT22;15134;48.768;9.184;2023-11-21T13:40:40;10.00;99.90
27741;DHT22;15134;48.768;9.184;2023-11-21T13:43:13;10.00;99.90
27741;DHT22;15134;48.768;9.184;2023-11-21T13:45:43;10.00;99.90
27741;DHT22;15134;48.768;9.184;2023-11-21T13:48:10;10.10;99.90
27741;DHT22;15134;48.768;9.184;2023-11-21T13:50:43;10.10;99.90
27741;DHT22;15134;48.768;9.184;2023-11-21T13:53:14;10.00;99.90
27741;DHT22;15134;48.768;9.184;2023-11-21T13:55:50;9.90;99.90
27741;DHT22;15134;48.768;9.184;2023-11-21T13:58:17;9.90;99.90
27741;DHT22;15134;48.768;9.184;2023-11-21T14:00:50;9.90;99.90
27741;DHT22;15134;48.768;9.184;2023-11-21T14:03:31;10.00;99.90
27741;DHT22;15134;48.768;9.184;2023-11-21T14:06:10;10.10;99.90
27741;DHT22;15134;48.768;9.184;2023-11-21T14:08:41;10.20;99.90
27741;DHT22;15134;48.768;9.184;2023-11-21T14:11:07;10.10;99.90
27741;DHT22;15134;48.768;9.184;2023-11-21T14:13:33;10.10;99.90
27741;DHT22;15134;48.768;9.184;2023-11-21T14:15:59;10.10;99.90
27741;DHT22;15134;48.768;9.184;2023-11-21T14:18:27;10.10;99.90
27741;DHT22;15134;48.768;9.184;2023-11-21T14:20:59;10.10;99.90
27741;DHT22;15134;48.768;9.184;2023-11-21T14:23:25;10.10;99.90
27741;DHT22;15134;48.768;9.184;2023-11-21T14:25:51;10.10;99.90
27741;DHT22;15134;48.768;9.184;2023-11-21T14:28:17;10.10;99.90
27741;DHT22;15134;48.768;9.184;2023-11-21T14:30:48;10.10;99.90
27741;DHT22;15134;48.768;9.184;2023-11-21T14:33:13;10.10;99.90
27741;DHT22;15134;48.768;9.184;2023-11-21T14:35:42;10.00;99.90
27741;DHT22;15134;48.768;9.184;2023-11-21T14:38:08;10.10;99.90
27741;DHT22;15134;48.768;9.184;2023-11-21T14:40:35;10.10;99.90
27741;DHT22;15134;48.768;9.184;2023-11-21T14:43:04;10.00;99.90
27741;DHT22;15134;48.768;9.184;2023-11-21T14:45:34;10.00;99.90
27741;DHT22;15134;48.768;9.184;2023-11-21T14:48:00;9.90;99.90
27741;DHT22;15134;48.768;9.184;2023-11-21T14:50:43;9.80;99.90
27741;DHT22;15134;48.768;9.184;2023-11-21T14:53:35;9.80;99.90
27741;DHT22;15134;48.768;9.184;2023-11-21T14:56:21;9.80;99.90
27741;DHT22;15134;48.768;9.184;2023-11-21T14:58:57;9.70;99.90
27741;DHT22;15134;48.768;9.184;2023-11-21T15:01:24;9.80;99.90
27741;DHT22;15134;48.768;9.184;2023-11-21T15:04:08;9.90;99.90
27741;DHT22;15134;48.768;9.184;2023-11-21T15:06:40;9.80;99.90
27741;DHT22;15134;48.768;9.184;2023-11-21T15:09:08;9.90;99.90
27741;DHT22;15134;48.768;9.184;2023-11-21T15:11:35;9.80;99.90
27741;DHT22;15134;48.768;9.184;2023-11-21T15:14:02;9.80;99.90
27741;DHT22;15134;48.768;9.184;2023-11-21T15:16:35;9.90;99.90
27741;DHT22;15134;48.768;9.184;2023-11-21T15:19:06;9.90;99.90
27741;DHT22;15134;48.768;9.184;2023-11-21T15:21:35;10.00;99.90
27741;DHT22;15134;48.768;9.184;2023-11-21T15:24:01;10.00;99.90
27741;DHT22;15134;48.768;9.184;2023-11-21T15:26:28;10.00;99.90
27741;DHT22;15134;48.768;9.184;2023-11-21T15:28:54;10.00;99.90
27741;DHT22;15134;48.768;9.184;2023-11-21T15:31:20;9.90;99.90
27741;DHT22;15134;48.768;9.184;2023-11-21T15:33:51;9.80;99.90
27741;DHT22;15134;48.768;9.184;2023-11-21T15:36:18;9.80;99.90
27741;DHT22;15134;48.768;9.184;2023-11-21T15:38:44;9.80;99.90
27741;DHT22;15134;48.768;9.184;2023-11-21T15:41:10;9.70;99.90
27741;DHT22;15134;48.768;9.184;2023-11-21T15:43:37;9.70;99.90
27741;DHT22;15134;48.768;9.184;2023-11-21T15:46:03;9.70;99.90
27741;DHT22;15134;48.768;9.184;2023-11-21T15:48:36;9.70;99.90
27741;DHT22;15134;48.768;9.184;2023-11-21T15:51:04;9.70;99.90
27741;DHT22;15134;48.768;9.184;2023-11-21T15:53:31;9.70;99.90